createdAt,value
2023-05-18T00:11:45.558Z,6.5
2023-05-18T00:41:45.563Z,6.06
2023-05-18T01:11:45.566Z,5.81
2023-05-18T01:41:45.579Z,6
2023-05-18T02:11:45.598Z,5.13
2023-05-18T02:41:45.640Z,4.44
2023-05-18T03:11:45.602Z,3.81
2023-05-18T03:41:45.621Z,3.63
2023-05-18T04:11:45.609Z,3.63
2023-05-18T04:41:45.611Z,4.13
2023-05-18T05:11:45.612Z,4.88
2023-05-18T05:41:45.634Z,6.06
2023-05-18T06:11:45.637Z,7
2023-05-18T06:41:45.646Z,8.25
2023-05-18T07:11:45.644Z,9.44
2023-05-18T07:41:45.667Z,10.38
2023-05-18T08:11:45.653Z,11.25
2023-05-18T08:41:45.648Z,12
2023-05-18T09:11:45.645Z,15.31
2023-05-18T09:41:45.675Z,15.75
2023-05-18T10:11:45.686Z,16.88
2023-05-18T10:41:45.685Z,16.69
2023-05-18T11:11:45.685Z,18.13
2023-05-18T11:41:45.868Z,17.63
2023-05-18T12:11:45.712Z,20.63
2023-05-18T12:41:45.710Z,21.44
2023-05-18T13:11:47.157Z,21.75
2023-05-18T13:41:45.723Z,22.19
2023-05-18T14:11:45.710Z,21.06
2023-05-18T14:41:45.715Z,20.19
2023-05-18T15:11:45.724Z,20.56
2023-05-18T15:41:45.728Z,20.13
2023-05-18T16:11:45.718Z,21.75
2023-05-18T16:41:45.710Z,20.5
2023-05-18T17:11:45.722Z,24.19
2023-05-18T17:41:45.745Z,21.63
2023-05-18T18:11:45.743Z,17.38
2023-05-18T18:41:45.739Z,15
2023-05-18T19:11:45.758Z,13.88
2023-05-18T19:41:45.769Z,13.31
2023-05-18T20:11:45.767Z,12.69
2023-05-18T20:41:45.791Z,12
2023-05-18T21:11:45.793Z,11.56
2023-05-18T21:41:45.793Z,11.06
2023-05-18T22:11:45.799Z,10.75
2023-05-18T22:41:45.791Z,10.44
2023-05-18T23:11:45.819Z,9.88
2023-05-18T23:41:45.831Z,9.44
